Island Park, ID (83429)

4:59 AM MDT on April 25, 2017 (GMT -0600)
Yale Creek Cabin | | Change Station

Elev 6470 ft 44.48 °N, 111.44 °W | Updated 16 seconds ago

Snow
Snow
31.5 °F
Feels Like 32 °F
N
0.0
Wind Variable Wind from SSE

Today
High -- | Low -- °F
--% Chance of Precip.
Yesterday
High -- | Low -- °F
Precip. -- in
Pressure 29.64 in
Visibility 6.0 miles
Clouds Scattered Clouds 400 ft
Scattered Clouds 3500 ft
Overcast 5000 ft
Windchill 32 °F
Dew Point 31 °F
Humidity 98%
Rainfall 0.00 in
Snow Depth Not available.
6:24 AM 8:22 PM
Waning Crescent, 2% visible
METAR KWYS 251045Z AUTO 00000KT 6SM -SN SCT004 SCT035 OVC050 00/00 A2964 RMK AO2 P0003
Pressure 29.64 in
Visibility 6.0 miles
Clouds Scattered Clouds 400 ft
Scattered Clouds 3500 ft
Overcast 5000 ft
Windchill 32 °F
Dew Point 31 °F
Humidity 98%
Rainfall 0.00 in
Snow Depth Not available.
6:24 AM 8:22 PM
Waning Crescent, 2% visible
METAR KWYS 251045Z AUTO 00000KT 6SM -SN SCT004 SCT035 OVC050 00/00 A2964 RMK AO2 P0003

Get Severe Weather Alerts

Thanks for signing up!

Be on the lookout for a verification email in your inbox.

You'll start receiving the daily forecast at 8 AM.

×

10-Day Weather Forecast

Almanac

Astronomy

Apr. 25, 2017 Rise Set
Actual Time
Civil Twilight
Nautical Twilight
Astronomical Twilight
Moon
Length of Visible Light
Length of Day
Tomorrow will be .
, % of the Moon is Illuminated

Today's Extremes

State Highs State Lows

Community

WunderPhotos

WunderBlog® & News

Nearby

Air Quality

  Air Quality AQ Index Pollutant
Not available.

Snow Depth

Station Depth Elevation

Earthquake Activity

City Distance Mag. Time & Date
Minimum magnitude displayed is 2.5.

Coastal Water Temperatures

Place Temperature

Stations

Nearby Weather Stations

Station Location Temp. Windchill Dew Point Humidity Wind Precip. Elev Updated Type
                   

Watches & Warnings

There are currently no watches in effect.